Time;durP1;ratioP1;P1;durP2;ratioP2;P2;SDS_P1;SDS_P2;PMS_P1;PMS_P2;Temp;Humidity;BMP_temperature;BMP_pressure;BME280_temperature;BME280_humidity;BME280_pressure;Samples;Min_cycle;Max_cycle;Signal;HPM_P1;HPM_P2
2022/07/31 00:00:53;;;;;;;2.60;2.40;;;22.80;43.30;;;;;;20859;6795;67076;-88
2022/07/31 00:03:37;;;;;;;2.50;2.30;;;22.70;44.40;;;;;;20870;6739;118763;-88
2022/07/31 00:06:03;;;;;;;2.87;2.67;;;22.50;43.80;;;;;;20752;6747;117809;-88
2022/07/31 00:08:40;;;;;;;2.77;2.60;;;22.70;44.20;;;;;;20675;6734;296556;-88
2022/07/31 00:11:25;;;;;;;3.10;2.62;;;22.70;44.50;;;;;;20540;6754;316623;-88
2022/07/31 00:14:04;;;;;;;;;;;;;;;;;;;;;
2022/07/31 00:16:39;;;;;;;2.53;2.40;;;23.40;43.60;;;;;;20690;6748;116826;-88
2022/07/31 00:19:17;;;;;;;;;;;;;;;;;;;;;
2022/07/31 00:22:18;;;;;;;3.73;2.60;;;22.70;44.50;;;;;;21258;6573;67424;-86
2022/07/31 00:24:44;;;;;;;3.22;2.92;;;22.60;44.70;;;;;;20717;6779;306477;-87
2022/07/31 00:27:10;;;;;;;3.00;2.80;;;22.80;45.00;;;;;;20571;6770;315674;-85
2022/07/31 00:29:35;;;;;;;3.17;2.97;;;23.10;44.50;;;;;;20563;6848;289064;-85
2022/07/31 00:32:01;;;;;;;3.50;3.30;;;23.20;44.60;;;;;;20517;6838;337646;-87
2022/07/31 00:34:26;;;;;;;2.97;2.83;;;23.40;43.60;;;;;;20736;6838;118657;-85
2022/07/31 00:36:52;;;;;;;3.40;3.20;;;23.20;43.90;;;;;;20450;6860;296484;-86
2022/07/31 00:39:18;;;;;;;3.83;3.13;;;22.90;44.30;;;;;;20701;6845;121280;-86
2022/07/31 00:41:44;;;;;;;3.30;3.10;;;22.90;44.30;;;;;;20444;6860;341538;-87
2022/07/31 00:44:10;;;;;;;3.60;3.30;;;23.00;44.60;;;;;;20420;6860;308869;-87
2022/07/31 00:46:35;;;;;;;3.28;3.08;;;23.10;44.70;;;;;;20670;6875;119645;-84
2022/07/31 00:49:01;;;;;;;3.70;3.50;;;22.90;44.70;;;;;;20464;6873;278747;-85
2022/07/31 00:51:26;;;;;;;3.50;3.20;;;22.90;44.90;;;;;;20692;6875;118211;-85
2022/07/31 00:53:53;;;;;;;3.05;2.92;;;22.80;44.90;;;;;;20742;6860;116937;-86
2022/07/31 00:56:18;;;;;;;3.40;3.20;;;22.50;45.10;;;;;;20527;6860;308118;-86
2022/07/31 00:58:44;;;;;;;3.30;3.10;;;22.60;45.40;;;;;;20523;6860;336534;-86
2022/07/31 01:01:09;;;;;;;2.97;2.65;;;22.80;44.80;;;;;;20729;6860;117077;-85
2022/07/31 01:03:35;;;;;;;5.12;2.95;;;22.70;45.00;;;;;;20539;6860;309178;-85
2022/07/31 01:06:02;;;;;;;2.80;2.70;;;22.70;44.90;;;;;;20720;6860;116446;-86
2022/07/31 01:08:26;;;;;;;3.15;2.95;;;22.60;44.90;;;;;;20733;6860;121411;-85
2022/07/31 01:10:55;;;;;;;3.40;3.10;;;22.30;45.10;;;;;;20546;6860;308202;-86
2022/07/31 01:13:20;;;;;;;3.00;2.80;;;22.50;45.10;;;;;;20653;6860;118081;-86
2022/07/31 01:15:46;;;;;;;3.53;2.90;;;22.40;45.00;;;;;;20646;6860;119671;-87
2022/07/31 01:18:11;;;;;;;3.05;2.85;;;22.20;45.30;;;;;;20464;6860;313806;-86
2022/07/31 01:20:37;;;;;;;2.90;2.70;;;22.30;45.30;;;;;;20453;6860;278623;-88
2022/07/31 01:23:12;;;;;;;2.92;2.80;;;22.60;44.80;;;;;;20413;6860;281284;-88
2022/07/31 01:26:01;;;;;;;2.92;2.72;;;22.90;44.30;;;;;;20434;6857;313206;-88
2022/07/31 01:28:42;;;;;;;3.12;2.83;;;23.00;44.10;;;;;;20417;6872;339729;-87
2022/07/31 01:31:09;;;;;;;2.90;2.70;;;23.20;43.20;;;;;;20377;6867;285018;-87
2022/07/31 01:33:37;;;;;;;2.97;2.30;;;23.20;43.10;;;;;;20641;6873;121430;-87
2022/07/31 01:36:04;;;;;;;2.47;2.27;;;22.90;43.40;;;;;;20463;6888;116414;-89
2022/07/31 01:38:34;;;;;;;3.27;2.40;;;22.50;43.70;;;;;;20678;6868;117115;-88
2022/07/31 01:40:58;;;;;;;2.70;2.50;;;22.10;44.10;;;;;;20681;6854;118513;-88
2022/07/31 01:43:23;;;;;;;2.50;2.37;;;21.90;44.50;;;;;;20687;6854;117717;-88
2022/07/31 01:45:50;;;;;;;2.80;2.60;;;21.90;44.70;;;;;;20478;6854;289209;-87
2022/07/31 01:48:16;;;;;;;2.30;2.10;;;21.90;44.60;;;;;;20670;6854;118839;-88
2022/07/31 01:50:41;;;;;;;2.80;2.60;;;21.90;44.50;;;;;;20700;6854;120389;-88
2022/07/31 01:53:08;;;;;;;2.80;2.60;;;21.70;44.70;;;;;;20445;6854;309051;-86
2022/07/31 01:55:33;;;;;;;2.43;2.23;;;21.90;44.90;;;;;;20687;6854;119854;-88
2022/07/31 01:57:59;;;;;;;3.73;2.70;;;21.90;44.90;;;;;;20689;6854;122900;-86
2022/07/31 02:00:24;;;;;;;3.42;2.80;;;21.60;45.20;;;;;;20461;6854;309869;-88
2022/07/31 02:02:51;;;;;;;3.28;2.53;;;21.70;45.20;;;;;;20689;6854;117413;-86
2022/07/31 02:05:16;;;;;;;2.93;2.73;;;21.70;45.20;;;;;;20659;6854;120548;-88
2022/07/31 02:07:42;;;;;;;2.90;2.70;;;21.60;45.50;;;;;;20679;6854;117471;-88
2022/07/31 02:10:08;;;;;;;4.10;2.78;;;21.40;45.70;;;;;;20470;6854;279980;-88
2022/07/31 02:12:33;;;;;;;3.23;3.00;;;21.60;45.90;;;;;;20470;6854;284093;-86
2022/07/31 02:14:59;;;;;;;4.05;2.90;;;21.90;45.20;;;;;;20448;6854;281478;-89
2022/07/31 02:17:25;;;;;;;4.72;3.00;;;22.20;44.90;;;;;;20679;6854;118861;-87
2022/07/31 02:19:50;;;;;;;3.83;3.10;;;22.00;44.90;;;;;;20478;6854;282358;-88
2022/07/31 02:22:15;;;;;;;3.13;2.93;;;22.10;45.20;;;;;;20467;6854;284406;-88
2022/07/31 02:24:42;;;;;;;3.70;3.50;;;22.20;45.20;;;;;;20474;6854;313232;-87
2022/07/31 02:27:08;;;;;;;3.30;3.10;;;22.40;45.10;;;;;;20670;6854;117903;-88
2022/07/31 02:29:33;;;;;;;3.20;3.00;;;22.10;45.10;;;;;;20682;6854;119178;-88
2022/07/31 02:32:00;;;;;;;3.60;3.30;;;21.80;45.70;;;;;;20477;6854;300550;-89
2022/07/31 02:34:26;;;;;;;3.10;2.90;;;21.80;45.70;;;;;;20682;6854;117321;-88
2022/07/31 02:36:51;;;;;;;3.20;3.00;;;21.70;45.70;;;;;;20473;6854;308568;-89
2022/07/31 02:39:16;;;;;;;3.53;3.23;;;21.80;45.80;;;;;;20460;6854;278834;-87
2022/07/31 02:41:42;;;;;;;3.07;2.87;;;22.00;45.50;;;;;;20670;6854;118739;-88
2022/07/31 02:44:07;;;;;;;3.37;3.07;;;21.80;45.50;;;;;;20478;6853;286371;-88
2022/07/31 02:46:33;;;;;;;3.40;3.10;;;21.80;45.40;;;;;;20464;6854;338463;-88
2022/07/31 02:48:59;;;;;;;3.20;3.10;;;22.00;45.30;;;;;;20665;6854;121642;-87
2022/07/31 02:51:26;;;;;;;3.43;3.03;;;21.80;45.70;;;;;;20479;6854;283392;-87
2022/07/31 02:53:54;;;;;;;3.23;2.90;;;21.80;45.70;;;;;;20691;6854;119000;-88
2022/07/31 02:56:19;;;;;;;3.30;3.00;;;21.60;45.80;;;;;;20683;6854;117273;-86
2022/07/31 02:58:45;;;;;;;3.03;2.80;;;21.30;46.20;;;;;;20465;6854;337618;-88
2022/07/31 03:01:10;;;;;;;3.30;3.10;;;21.40;46.30;;;;;;20456;6854;283010;-87
2022/07/31 03:03:36;;;;;;;3.10;2.90;;;21.70;46.00;;;;;;20461;6854;337967;-87
2022/07/31 03:06:01;;;;;;;2.97;2.78;;;21.90;45.70;;;;;;20689;6854;118600;-88
2022/07/31 03:08:27;;;;;;;2.60;2.50;;;21.70;45.80;;;;;;20692;6854;122719;-87
2022/07/31 03:10:52;;;;;;;3.10;2.90;;;21.40;46.20;;;;;;20697;6854;116343;-88
2022/07/31 03:13:18;;;;;;;3.58;3.28;;;21.10;46.50;;;;;;20452;6854;342661;-88
2022/07/31 03:15:45;;;;;;;3.25;3.05;;;21.30;46.80;;;;;;20681;6854;118096;-87
2022/07/31 03:18:10;;;;;;;3.23;3.03;;;21.20;46.60;;;;;;20688;6854;118509;-87
2022/07/31 03:20:36;;;;;;;3.23;3.10;;;21.00;47.00;;;;;;20685;6854;117351;-88
2022/07/31 03:23:01;;;;;;;3.10;2.90;;;20.70;47.30;;;;;;20453;6854;279733;-88
2022/07/31 03:25:27;;;;;;;3.07;2.90;;;20.90;47.90;;;;;;20477;6854;300161;-87
2022/07/31 03:27:52;;;;;;;2.97;2.87;;;21.30;47.30;;;;;;20475;6854;279233;-89
2022/07/31 03:30:23;;;;;;;2.67;2.47;;;21.50;46.70;;;;;;20687;6854;122222;-89
2022/07/31 03:32:43;;;;;;;3.42;3.20;;;21.30;46.70;;;;;;20457;6854;309134;-88
2022/07/31 03:35:09;;;;;;;3.07;2.87;;;21.30;46.90;;;;;;20667;6854;122337;-88
2022/07/31 03:37:35;;;;;;;3.85;3.30;;;21.20;47.00;;;;;;20471;6854;308434;-88
2022/07/31 03:40:01;;;;;;;3.23;3.03;;;21.20;47.00;;;;;;20688;6854;118249;-89
2022/07/31 03:42:27;;;;;;;5.43;2.80;;;20.80;47.70;;;;;;20688;6854;118952;-87
2022/07/31 03:44:53;;;;;;;3.12;2.92;;;20.70;47.60;;;;;;20469;6854;316039;-88
2022/07/31 03:47:18;;;;;;;3.50;3.20;;;20.90;48.40;;;;;;20451;6854;282938;-88
2022/07/31 03:49:44;;;;;;;3.37;3.12;;;21.10;47.40;;;;;;20689;6854;117322;-86
2022/07/31 03:52:10;;;;;;;3.15;2.95;;;20.90;47.40;;;;;;20464;6854;307918;-88
2022/07/31 03:54:35;;;;;;;3.23;3.03;;;21.00;47.30;;;;;;20691;6853;121430;-88
2022/07/31 03:57:01;;;;;;;3.60;3.40;;;20.50;47.50;;;;;;20662;6853;117236;-87
2022/07/31 03:59:27;;;;;;;5.83;3.20;;;20.50;47.50;;;;;;20666;6854;118552;-88
2022/07/31 04:01:52;;;;;;;3.40;3.20;;;20.30;47.80;;;;;;20472;6854;306694;-88
2022/07/31 04:04:19;;;;;;;3.03;2.83;;;20.50;47.80;;;;;;20679;6854;117340;-88
2022/07/31 04:06:45;;;;;;;3.53;3.23;;;20.50;47.60;;;;;;20475;6854;279346;-89
2022/07/31 04:09:11;;;;;;;3.43;3.10;;;20.60;47.40;;;;;;20666;6854;117612;-88
2022/07/31 04:11:37;;;;;;;3.17;3.08;;;20.60;47.40;;;;;;20472;6854;308844;-87
2022/07/31 04:14:02;;;;;;;3.20;2.92;;;20.80;47.30;;;;;;20474;6854;309167;-88
2022/07/31 04:16:29;;;;;;;3.10;3.00;;;21.00;47.20;;;;;;20689;6854;118861;-90
2022/07/31 04:18:54;;;;;;;3.23;3.03;;;21.00;47.10;;;;;;20690;6854;122246;-88
2022/07/31 04:21:23;;;;;;;3.03;2.83;;;20.70;47.40;;;;;;20673;6854;117434;-87
2022/07/31 04:23:48;;;;;;;3.60;3.40;;;20.50;47.80;;;;;;20462;6854;279192;-87
2022/07/31 04:26:14;;;;;;;3.10;2.90;;;20.70;47.60;;;;;;20686;6854;118242;-85
2022/07/31 04:28:39;;;;;;;5.87;3.23;;;20.70;47.50;;;;;;20694;6854;117271;-88
2022/07/31 04:31:06;;;;;;;3.90;3.23;;;20.80;48.20;;;;;;20457;6854;281012;-88
2022/07/31 04:33:31;;;;;;;3.20;3.00;;;20.70;48.00;;;;;;20473;6854;311978;-88
2022/07/31 04:35:57;;;;;;;3.20;2.90;;;21.00;47.70;;;;;;20694;6854;118987;-93
2022/07/31 04:38:23;;;;;;;4.33;2.97;;;20.90;47.60;;;;;;20687;6854;117374;-88
2022/07/31 04:40:49;;;;;;;3.43;3.23;;;20.70;47.90;;;;;;20486;6854;279712;-88
2022/07/31 04:43:15;;;;;;;3.67;3.22;;;20.80;48.50;;;;;;20503;6854;281622;-87
2022/07/31 04:45:40;;;;;;;3.17;3.07;;;21.10;48.10;;;;;;20544;6854;336474;-86
2022/07/31 04:48:05;;;;;;;4.37;3.10;;;21.30;47.50;;;;;;20540;6854;288899;-85
2022/07/31 04:50:31;;;;;;;3.28;3.03;;;21.50;47.00;;;;;;20758;6854;117852;-86
2022/07/31 04:52:56;;;;;;;3.17;2.90;;;21.30;47.10;;;;;;20748;6854;116534;-86
2022/07/31 04:55:23;;;;;;;3.10;2.77;;;21.00;47.50;;;;;;20752;6854;114437;-86
2022/07/31 04:57:48;;;;;;;3.27;2.90;;;20.80;48.00;;;;;;20754;6854;118201;-86
2022/07/31 05:00:13;;;;;;;3.43;3.17;;;20.60;48.30;;;;;;20564;6854;307210;-86
2022/07/31 05:02:39;;;;;;;3.60;2.97;;;20.90;49.10;;;;;;20761;6854;116637;-86
2022/07/31 05:05:05;;;;;;;3.07;2.97;;;20.90;48.80;;;;;;20720;6854;121364;-88
2022/07/31 05:07:30;;;;;;;2.90;2.70;;;20.80;48.90;;;;;;20719;6852;120565;-87
2022/07/31 05:09:56;;;;;;;3.50;3.10;;;20.70;49.00;;;;;;20721;6854;117292;-87
2022/07/31 05:12:22;;;;;;;3.23;3.00;;;20.70;49.00;;;;;;20695;6854;118897;-87
2022/07/31 05:14:48;;;;;;;3.58;3.17;;;20.60;49.20;;;;;;20476;6854;280009;-86
2022/07/31 05:17:14;;;;;;;3.40;3.10;;;21.40;49.00;;;;;;20458;6854;312815;-86
2022/07/31 05:19:39;;;;;;;2.90;2.70;;;21.40;49.00;;;;;;20686;6854;117658;-87
2022/07/31 05:22:05;;;;;;;3.40;3.10;;;21.40;48.70;;;;;;20480;6854;281756;-87
2022/07/31 05:24:31;;;;;;;3.42;3.12;;;21.50;48.60;;;;;;20475;6854;312812;-87
2022/07/31 05:26:57;;;;;;;2.67;2.58;;;21.70;48.90;;;;;;20665;6854;127894;-87
2022/07/31 05:29:22;;;;;;;3.97;3.30;;;21.70;48.20;;;;;;20690;6854;119638;-87
2022/07/31 05:31:51;;;;;;;2.87;2.78;;;21.50;48.50;;;;;;20686;6854;117768;-87
2022/07/31 05:34:17;;;;;;;2.63;2.53;;;21.30;48.70;;;;;;20691;6854;117739;-87
2022/07/31 05:36:43;;;;;;;3.00;2.80;;;21.30;48.70;;;;;;20666;6854;119008;-86
2022/07/31 05:39:08;;;;;;;2.93;2.80;;;21.30;48.80;;;;;;20669;6854;117965;-89
2022/07/31 05:41:34;;;;;;;2.87;2.78;;;21.20;48.80;;;;;;20694;6854;118044;-88
2022/07/31 05:44:01;;;;;;;3.20;2.97;;;21.30;48.90;;;;;;20680;6854;117451;-87
2022/07/31 05:46:26;;;;;;;3.57;3.27;;;21.30;48.80;;;;;;20483;6854;282810;-88
2022/07/31 05:48:52;;;;;;;3.17;2.87;;;21.60;48.40;;;;;;20684;6854;118233;-87
2022/07/31 05:51:17;;;;;;;3.50;3.20;;;21.80;48.30;;;;;;20465;6854;278582;-88
2022/07/31 05:53:43;;;;;;;2.50;2.40;;;22.00;47.80;;;;;;20703;6854;118454;-87
2022/07/31 05:56:08;;;;;;;3.10;2.80;;;22.10;47.70;;;;;;20691;6854;118017;-89
2022/07/31 05:58:35;;;;;;;3.40;3.10;;;22.20;47.60;;;;;;20480;6854;308679;-87
2022/07/31 06:01:01;;;;;;;2.93;2.77;;;22.20;47.50;;;;;;20671;6854;117895;-87
2022/07/31 06:03:34;;;;;;;3.10;2.80;;;22.30;47.60;;;;;;20477;6854;308124;-86
2022/07/31 06:05:55;;;;;;;2.90;2.70;;;22.60;47.60;;;;;;20460;6854;308574;-87
2022/07/31 06:08:22;;;;;;;2.90;2.80;;;22.90;47.20;;;;;;20477;6854;279409;-86
2022/07/31 06:10:47;;;;;;;3.10;2.90;;;23.20;46.40;;;;;;20479;6854;301983;-87
2022/07/31 06:13:13;;;;;;;3.10;2.90;;;23.60;45.90;;;;;;20456;6854;311475;-87
2022/07/31 06:15:39;;;;;;;2.97;2.70;;;23.60;45.90;;;;;;20692;6854;120485;-87
2022/07/31 06:18:05;;;;;;;3.00;2.80;;;23.50;46.20;;;;;;20473;6853;311629;-86
2022/07/31 06:20:30;;;;;;;2.80;2.70;;;23.50;46.60;;;;;;20700;6854;117113;-88
2022/07/31 06:22:56;;;;;;;3.20;2.90;;;23.40;46.60;;;;;;20492;6854;308147;-87
2022/07/31 06:25:22;;;;;;;3.37;2.80;;;23.60;46.40;;;;;;20627;6874;117786;-88
2022/07/31 06:27:49;;;;;;;2.53;2.43;;;23.50;46.30;;;;;;20691;6854;121587;-88
2022/07/31 06:30:15;;;;;;;3.00;2.80;;;23.30;46.50;;;;;;20476;6854;309080;-89
2022/07/31 06:32:41;;;;;;;3.00;2.80;;;23.50;46.90;;;;;;20489;6854;311988;-88
2022/07/31 06:35:06;;;;;;;3.53;2.47;;;23.80;46.00;;;;;;20669;6854;119032;-88
2022/07/31 06:37:32;;;;;;;2.87;2.67;;;23.70;45.70;;;;;;20479;6854;313171;-89
2022/07/31 06:39:57;;;;;;;2.70;2.60;;;23.80;44.60;;;;;;20699;6854;117424;-88
2022/07/31 06:42:23;;;;;;;2.95;2.75;;;23.70;44.90;;;;;;20457;6854;309490;-88
2022/07/31 06:44:49;;;;;;;2.60;2.50;;;23.80;45.80;;;;;;20722;6854;116441;-88
2022/07/31 06:47:14;;;;;;;2.90;2.70;;;23.60;45.70;;;;;;20493;6854;310477;-87
2022/07/31 06:49:43;;;;;;;2.90;2.70;;;23.80;45.70;;;;;;20478;6854;280217;-88
2022/07/31 06:52:09;;;;;;;2.92;2.72;;;24.00;44.50;;;;;;20485;6854;279035;-89
2022/07/31 06:54:34;;;;;;;2.80;2.60;;;24.20;44.90;;;;;;20694;6854;118510;-88
2022/07/31 06:57:00;;;;;;;3.07;2.77;;;24.10;45.10;;;;;;20678;6854;117751;-88
2022/07/31 06:59:27;;;;;;;2.67;2.57;;;23.90;45.60;;;;;;20696;6854;118744;-88
2022/07/31 07:01:52;;;;;;;3.73;2.77;;;23.80;46.10;;;;;;20484;6854;284122;-90
2022/07/31 07:04:18;;;;;;;3.10;2.50;;;24.10;45.40;;;;;;20484;6854;308333;-88
2022/07/31 07:06:45;;;;;;;2.70;2.60;;;24.50;45.10;;;;;;20730;6854;117799;-87
2022/07/31 07:09:11;;;;;;;2.57;2.47;;;24.70;44.90;;;;;;20464;6854;308152;-87
2022/07/31 07:11:37;;;;;;;2.63;2.53;;;25.00;44.00;;;;;;20681;6854;118775;-86
2022/07/31 07:14:02;;;;;;;2.50;2.37;;;25.00;43.80;;;;;;20488;6854;283956;-88
2022/07/31 07:16:28;;;;;;;2.30;2.20;;;25.30;43.20;;;;;;20711;6854;116798;-86
2022/07/31 07:18:54;;;;;;;2.90;2.53;;;25.30;43.10;;;;;;20496;6854;281317;-85
2022/07/31 07:21:20;;;;;;;2.50;2.40;;;25.50;43.00;;;;;;20690;6854;117910;-87
2022/07/31 07:23:46;;;;;;;2.63;2.43;;;25.50;42.80;;;;;;20477;6854;282200;-85
2022/07/31 07:26:12;;;;;;;2.58;2.47;;;25.60;41.20;;;;;;20711;6854;117495;-85
2022/07/31 07:28:37;;;;;;;2.60;2.40;;;25.60;42.50;;;;;;20679;6854;117928;-85
2022/07/31 07:31:05;;;;;;;2.63;2.43;;;25.50;42.30;;;;;;20434;6852;282749;-85
2022/07/31 07:33:31;;;;;;;2.70;2.60;;;25.80;43.10;;;;;;20486;6854;307760;-86
2022/07/31 07:35:58;;;;;;;2.40;2.30;;;26.20;41.60;;;;;;20679;6854;121810;-86
2022/07/31 07:38:25;;;;;;;2.40;2.30;;;26.50;41.60;;;;;;20657;6854;117736;-88
2022/07/31 07:40:50;;;;;;;2.60;2.40;;;26.50;41.30;;;;;;20682;6854;117243;-84
2022/07/31 07:43:17;;;;;;;2.42;2.22;;;26.60;40.80;;;;;;20460;6854;339889;-85
2022/07/31 07:45:44;;;;;;;7.23;2.60;;;26.90;39.70;;;;;;20696;6854;117772;-87
2022/07/31 07:48:09;;;;;;;2.30;2.20;;;27.10;40.00;;;;;;20697;6854;118614;-85
2022/07/31 07:50:35;;;;;;;2.57;2.37;;;27.40;39.20;;;;;;20479;6854;297891;-85
2022/07/31 07:53:01;;;;;;;2.40;2.30;;;27.40;39.20;;;;;;20467;6854;336875;-85
2022/07/31 07:55:27;;;;;;;2.23;2.13;;;28.00;39.20;;;;;;20685;6854;120404;-85
2022/07/31 07:57:53;;;;;;;2.30;2.10;;;28.40;39.00;;;;;;20676;6854;117330;-84
2022/07/31 08:00:19;;;;;;;2.53;2.30;;;28.50;38.50;;;;;;20485;6854;312911;-86
2022/07/31 08:02:45;;;;;;;2.10;1.90;;;28.90;37.00;;;;;;20689;6854;119646;-87
2022/07/31 08:05:10;;;;;;;2.87;2.10;;;29.10;37.50;;;;;;20674;6854;117913;-88
2022/07/31 08:07:36;;;;;;;2.30;2.20;;;29.10;37.40;;;;;;20675;6854;117634;-87
2022/07/31 08:10:01;;;;;;;2.13;2.03;;;29.00;37.10;;;;;;20684;6854;117327;-87
2022/07/31 08:12:27;;;;;;;2.23;2.10;;;28.90;37.00;;;;;;20687;6854;117399;-90
2022/07/31 08:14:52;;;;;;;2.40;2.20;;;28.70;37.30;;;;;;20471;6854;280553;-88
2022/07/31 08:17:18;;;;;;;2.20;2.08;;;28.90;35.90;;;;;;20469;6854;308696;-86
2022/07/31 08:19:44;;;;;;;3.58;2.17;;;29.20;35.80;;;;;;20495;6854;339107;-88
2022/07/31 08:22:09;;;;;;;2.17;2.07;;;29.30;35.10;;;;;;20728;6854;117325;-87
2022/07/31 08:24:38;;;;;;;2.20;2.10;;;29.30;35.30;;;;;;20767;6854;116383;-91
2022/07/31 08:27:23;;;;;;;2.93;2.20;;;29.00;35.80;;;;;;20747;6854;117138;-90
2022/07/31 08:29:55;;;;;;;2.33;2.12;;;28.90;36.20;;;;;;20548;6854;341623;-90
2022/07/31 08:32:24;;;;;;;2.40;2.20;;;29.20;36.30;;;;;;20741;6854;117324;-92
2022/07/31 08:34:49;;;;;;;2.27;2.17;;;29.20;36.30;;;;;;20540;6854;313517;-89
2022/07/31 08:37:18;;;;;;;2.28;2.10;;;29.40;35.30;;;;;;20509;6854;308631;-90
2022/07/31 08:39:40;;;;;;;2.10;2.00;;;29.60;35.00;;;;;;20729;6854;118736;-90
2022/07/31 08:42:05;;;;;;;2.30;2.20;;;29.60;35.50;;;;;;20551;6852;286332;-89
2022/07/31 08:44:35;;;;;;;2.40;2.10;;;29.70;34.90;;;;;;20728;6854;116322;-88
2022/07/31 08:47:01;;;;;;;2.33;2.13;;;29.50;36.00;;;;;;20716;6854;120856;-86
2022/07/31 08:49:28;;;;;;;2.12;2.03;;;29.50;36.00;;;;;;20518;6854;336682;-90
2022/07/31 08:51:55;;;;;;;1.97;1.80;;;29.80;35.70;;;;;;20510;6854;279067;-85
2022/07/31 08:54:20;;;;;;;2.12;2.03;;;30.20;34.10;;;;;;20506;6854;309160;-89
2022/07/31 08:56:51;;;;;;;5.18;2.20;;;30.60;33.10;;;;;;20491;6854;309665;-86
2022/07/31 08:59:11;;;;;;;2.00;1.80;;;30.90;33.10;;;;;;20470;6854;307907;-86
2022/07/31 09:01:38;;;;;;;2.10;2.00;;;31.10;32.80;;;;;;20510;6854;309010;-87
2022/07/31 09:04:05;;;;;;;2.77;2.00;;;31.20;33.20;;;;;;20709;6854;120137;-88
2022/07/31 09:06:30;;;;;;;2.40;2.20;;;31.20;33.20;;;;;;20482;6854;297212;-88
2022/07/31 09:08:56;;;;;;;2.03;1.92;;;31.20;33.10;;;;;;20473;6854;282338;-87
2022/07/31 09:11:21;;;;;;;2.50;2.20;;;31.20;32.30;;;;;;20490;6854;309112;-86
2022/07/31 09:13:53;;;;;;;2.10;2.00;;;31.30;31.90;;;;;;20702;6854;117685;-89
2022/07/31 09:16:19;;;;;;;2.37;2.20;;;31.20;32.60;;;;;;20478;6854;279135;-84
2022/07/31 09:18:44;;;;;;;2.27;2.07;;;31.30;32.60;;;;;;20716;6854;120575;-86
2022/07/31 09:21:11;;;;;;;1.87;1.83;;;31.30;32.80;;;;;;20649;6854;117792;-85
2022/07/31 09:23:43;;;;;;;2.00;1.90;;;31.20;33.20;;;;;;20689;6854;118702;-86
2022/07/31 09:26:09;;;;;;;2.22;2.12;;;31.20;33.00;;;;;;20689;6854;117542;-85
2022/07/31 09:28:34;;;;;;;3.83;1.90;;;31.20;33.60;;;;;;20692;6854;117904;-89
2022/07/31 09:31:00;;;;;;;2.00;1.90;;;31.30;33.20;;;;;;20472;6854;279119;-85
2022/07/31 09:33:27;;;;;;;1.70;1.60;;;31.80;32.50;;;;;;20696;6854;117570;-87
2022/07/31 09:35:51;;;;;;;3.17;1.90;;;31.80;32.60;;;;;;20487;6854;279127;-86
2022/07/31 09:38:17;;;;;;;1.80;1.70;;;32.10;31.30;;;;;;20491;6854;308615;-86
2022/07/31 09:40:44;;;;;;;1.70;1.60;;;32.60;30.70;;;;;;20507;6854;307931;-87
2022/07/31 09:43:16;;;;;;;1.87;1.77;;;33.00;30.80;;;;;;20498;6854;337846;-86
2022/07/31 09:45:45;;;;;;;1.98;1.87;;;33.20;29.60;;;;;;20498;6854;279688;-87
2022/07/31 09:48:15;;;;;;;2.03;1.83;;;33.40;28.60;;;;;;20493;6854;308617;-86
2022/07/31 09:50:56;;;;;;;1.93;1.83;;;33.40;27.40;;;;;;20693;6854;118914;-86
2022/07/31 09:53:26;;;;;;;1.70;1.60;;;33.00;28.00;;;;;;20684;6853;117916;-88
2022/07/31 09:55:52;;;;;;;1.90;1.67;;;32.40;28.90;;;;;;20479;6854;305179;-87
2022/07/31 09:58:17;;;;;;;3.12;1.80;;;32.40;29.20;;;;;;20477;6854;279601;-86
2022/07/31 10:00:43;;;;;;;2.60;1.75;;;32.60;29.40;;;;;;20482;6854;339216;-85
2022/07/31 10:03:08;;;;;;;2.00;1.90;;;32.80;29.60;;;;;;20669;6854;118841;-88
2022/07/31 10:05:34;;;;;;;1.80;1.67;;;32.90;30.10;;;;;;20452;6854;309503;-88
2022/07/31 10:08:00;;;;;;;1.87;1.62;;;33.20;29.80;;;;;;20476;6854;283580;-87
2022/07/31 10:10:27;;;;;;;2.70;1.80;;;33.20;29.70;;;;;;20680;6854;117344;-87
2022/07/31 10:12:52;;;;;;;1.77;1.77;;;33.00;29.90;;;;;;20689;6854;117329;-88
2022/07/31 10:15:18;;;;;;;1.90;1.80;;;32.70;30.00;;;;;;20457;6854;308626;-87
2022/07/31 10:17:44;;;;;;;2.37;1.73;;;32.80;29.70;;;;;;20465;6854;309439;-89
2022/07/31 10:20:09;;;;;;;1.67;1.58;;;32.90;30.00;;;;;;20470;6854;342406;-90
2022/07/31 10:22:35;;;;;;;2.17;1.70;;;33.00;29.70;;;;;;20649;6854;117328;-87
2022/07/31 10:25:00;;;;;;;2.43;1.77;;;32.80;29.90;;;;;;20423;6854;279512;-86
2022/07/31 10:27:26;;;;;;;1.87;1.70;;;32.80;28.80;;;;;;20687;6854;117661;-85
2022/07/31 10:29:53;;;;;;;2.20;1.97;;;32.70;29.30;;;;;;20669;6854;117436;-88
2022/07/31 10:32:19;;;;;;;1.93;1.80;;;32.70;30.00;;;;;;20697;6854;121852;-87
2022/07/31 10:34:44;;;;;;;2.23;1.60;;;32.70;30.00;;;;;;20686;6854;117453;-86
2022/07/31 10:37:23;;;;;;;1.80;1.70;;;32.70;30.10;;;;;;20683;6854;117947;-88
2022/07/31 10:39:55;;;;;;;2.25;1.60;;;32.80;30.00;;;;;;20438;6854;301670;-89
2022/07/31 10:42:51;;;;;;;2.12;1.92;;;33.20;29.80;;;;;;20462;6854;338258;-87
2022/07/31 10:45:17;;;;;;;1.70;1.67;;;33.80;29.50;;;;;;20671;6854;119473;-84
2022/07/31 10:47:54;;;;;;;2.60;1.77;;;34.10;29.30;;;;;;20442;6854;341945;-85
2022/07/31 10:50:20;;;;;;;1.50;1.40;;;34.20;28.70;;;;;;20689;6854;118358;-86
2022/07/31 10:52:47;;;;;;;2.83;1.73;;;34.20;28.70;;;;;;20459;6854;339179;-85
2022/07/31 10:55:12;;;;;;;2.20;2.10;;;34.10;28.40;;;;;;20662;6854;117590;-85
2022/07/31 10:57:40;;;;;;;1.55;1.45;;;33.90;28.80;;;;;;20475;6854;313101;-85
2022/07/31 11:00:10;;;;;;;1.90;1.80;;;33.80;28.10;;;;;;20469;6854;338625;-85
2022/07/31 11:02:36;;;;;;;1.90;1.80;;;33.70;29.00;;;;;;20505;6854;280604;-84
2022/07/31 11:05:05;;;;;;;2.97;1.60;;;33.70;29.30;;;;;;20448;6852;308744;-86
2022/07/31 11:07:31;;;;;;;1.83;1.73;;;33.50;28.20;;;;;;20469;6854;308697;-85
2022/07/31 11:09:57;;;;;;;2.40;1.70;;;33.40;27.20;;;;;;20486;6854;293885;-85
2022/07/31 11:12:23;;;;;;;2.12;1.67;;;33.30;27.60;;;;;;20642;6854;117701;-85
2022/07/31 11:14:48;;;;;;;2.12;2.03;;;33.00;27.80;;;;;;20478;6854;314582;-85
2022/07/31 11:17:14;;;;;;;1.77;1.67;;;33.00;29.10;;;;;;20438;6854;312644;-87
2022/07/31 11:19:40;;;;;;;2.17;1.80;;;33.00;28.50;;;;;;20476;6854;308429;-88
2022/07/31 11:22:12;;;;;;;2.17;2.08;;;33.20;28.30;;;;;;20651;6854;118785;-92
2022/07/31 11:24:38;;;;;;;1.50;1.40;;;33.10;28.00;;;;;;20673;6854;117325;-88
2022/07/31 11:27:03;;;;;;;1.92;1.83;;;32.90;28.30;;;;;;20675;6854;117489;-89
2022/07/31 11:29:35;;;;;;;2.00;1.80;;;32.70;28.40;;;;;;20690;6854;120811;-89
2022/07/31 11:32:03;;;;;;;1.97;1.80;;;32.60;28.80;;;;;;20696;6854;118222;-90
2022/07/31 11:34:43;;;;;;;1.90;1.80;;;32.70;28.10;;;;;;20467;6854;279960;-89
2022/07/31 11:37:09;;;;;;;1.80;1.60;;;32.70;28.10;;;;;;20271;6854;309059;-91
2022/07/31 11:39:35;;;;;;;1.80;1.70;;;32.90;27.80;;;;;;20429;6854;308947;-89
2022/07/31 11:42:00;;;;;;;2.00;1.90;;;33.00;28.00;;;;;;20666;6854;117362;-89
2022/07/31 11:44:26;;;;;;;1.83;1.70;;;32.90;28.10;;;;;;20485;6854;306732;-89
2022/07/31 11:46:51;;;;;;;1.70;1.63;;;32.80;28.30;;;;;;20697;6854;118580;-87
2022/07/31 11:49:21;;;;;;;2.08;1.75;;;32.70;27.80;;;;;;20666;6854;121381;-86
2022/07/31 11:51:46;;;;;;;3.33;1.70;;;32.50;28.20;;;;;;20699;6854;117823;-85
2022/07/31 11:54:11;;;;;;;1.70;1.60;;;32.40;28.80;;;;;;20686;6854;118676;-85
2022/07/31 11:56:38;;;;;;;2.40;1.70;;;32.40;29.10;;;;;;20441;6854;282020;-85
2022/07/31 11:59:04;;;;;;;1.80;1.60;;;32.70;28.10;;;;;;20448;6854;308254;-85
2022/07/31 12:01:29;;;;;;;1.98;1.87;;;33.00;28.20;;;;;;20480;6854;283638;-86
2022/07/31 12:03:59;;;;;;;1.70;1.60;;;33.20;28.30;;;;;;20687;6854;118706;-86
2022/07/31 12:06:23;;;;;;;1.80;1.70;;;33.20;28.20;;;;;;20466;6854;279129;-89
2022/07/31 12:08:49;;;;;;;1.90;1.50;;;33.20;28.70;;;;;;20705;6854;117381;-87
2022/07/31 12:11:17;;;;;;;1.67;1.57;;;33.10;28.20;;;;;;20678;6854;118083;-90
2022/07/31 12:13:50;;;;;;;2.73;1.60;;;33.10;28.20;;;;;;20700;6854;121183;-90
2022/07/31 12:16:17;;;;;;;1.90;1.80;;;32.90;28.50;;;;;;20728;6852;117650;-91
2022/07/31 12:18:44;;;;;;;1.97;1.60;;;33.00;28.90;;;;;;20661;6854;117172;-89
2022/07/31 12:21:16;;;;;;;1.90;1.80;;;33.00;28.80;;;;;;20665;6854;119472;-89
2022/07/31 12:23:49;;;;;;;2.00;1.67;;;33.10;28.50;;;;;;20453;6854;312770;-88
2022/07/31 12:26:28;;;;;;;2.17;1.97;;;33.40;27.50;;;;;;20686;6854;117366;-88
2022/07/31 12:29:10;;;;;;;2.07;1.80;;;33.60;27.70;;;;;;20513;6854;308574;-88
2022/07/31 12:31:48;;;;;;;2.90;1.83;;;33.80;27.40;;;;;;20706;6854;117514;-84
2022/07/31 12:34:30;;;;;;;1.67;1.57;;;33.70;28.00;;;;;;20687;6854;117395;-87
2022/07/31 12:37:02;;;;;;;3.40;1.70;;;33.50;27.90;;;;;;20645;6854;117764;-86